createdAt,value
2023-09-18T00:00:13.692Z,13.60
2023-09-18T00:00:46.734Z,13.35
2023-09-18T00:01:21.443Z,12.75
2023-09-18T00:01:53.864Z,12.73
2023-09-18T00:02:26.470Z,13.48
2023-09-18T00:02:58.906Z,13.82
2023-09-18T00:03:31.336Z,12.90
2023-09-18T00:04:04.196Z,12.20
2023-09-18T00:04:36.706Z,13.30
2023-09-18T00:05:09.219Z,14.07
2023-09-18T00:05:45.558Z,12.95
2023-09-18T00:06:18.162Z,13.95
2023-09-18T00:06:50.559Z,14.50
2023-09-18T00:07:23.613Z,13.52
2023-09-18T00:07:55.961Z,17.75
2023-09-18T00:08:28.521Z,13.63
2023-09-18T00:09:01.155Z,13.88
2023-09-18T00:09:33.649Z,14.82
2023-09-18T00:10:06.271Z,13.23
2023-09-18T00:10:38.860Z,13.55
2023-09-18T00:11:12.115Z,12.63
2023-09-18T00:11:44.950Z,14.80
2023-09-18T00:12:17.328Z,15.20
2023-09-18T00:12:49.968Z,12.77
2023-09-18T00:13:23.174Z,13.55
2023-09-18T00:13:55.915Z,12.30
2023-09-18T00:14:28.777Z,14.40
2023-09-18T00:15:01.402Z,13.80
2023-09-18T00:15:34.033Z,14.47
2023-09-18T00:16:06.764Z,14.23
2023-09-18T00:16:52.051Z,14.98
2023-09-18T00:17:30.912Z,25.33
2023-09-18T00:18:03.662Z,23.30
2023-09-18T00:18:36.165Z,20.15
2023-09-18T00:19:12.008Z,15.20
2023-09-18T00:19:44.809Z,12.60
2023-09-18T00:20:20.946Z,12.98
2023-09-18T00:20:53.436Z,12.82
2023-09-18T00:21:26.772Z,13.37
2023-09-18T00:22:02.175Z,12.32
2023-09-18T00:22:35.348Z,12.85
2023-09-18T00:23:07.737Z,14.38
2023-09-18T00:23:40.266Z,13.88
2023-09-18T00:24:13.303Z,14.13
2023-09-18T00:24:49.800Z,14.10
2023-09-18T00:25:22.509Z,14.57
2023-09-18T00:25:54.896Z,14.55
2023-09-18T00:26:27.343Z,13.95
2023-09-18T00:26:59.981Z,14.00
2023-09-18T00:27:34.301Z,14.18
2023-09-18T00:28:06.952Z,14.73
2023-09-18T00:28:39.685Z,14.57
2023-09-18T00:29:12.060Z,13.65
2023-09-18T00:29:44.791Z,13.63
2023-09-18T00:30:17.469Z,14.05
2023-09-18T00:30:51.246Z,12.77
2023-09-18T00:31:23.693Z,13.98
2023-09-18T00:31:56.223Z,13.20
2023-09-18T00:32:29.487Z,12.73
2023-09-18T00:33:02.251Z,12.95
2023-09-18T00:33:34.802Z,13.75
2023-09-18T00:34:07.250Z,12.60
2023-09-18T00:34:39.453Z,12.82
2023-09-18T00:35:11.930Z,12.73
2023-09-18T00:35:50.811Z,12.35
2023-09-18T00:36:23.127Z,12.82
2023-09-18T00:36:55.646Z,13.00
2023-09-18T00:37:28.062Z,11.90
2023-09-18T00:38:03.865Z,12.83
2023-09-18T00:38:36.278Z,12.25
2023-09-18T00:39:09.526Z,12.45
2023-09-18T00:39:43.702Z,13.68
2023-09-18T00:40:16.148Z,12.88
2023-09-18T00:40:49.615Z,13.23
2023-09-18T00:41:22.284Z,12.00
2023-09-18T00:41:55.539Z,12.10
2023-09-18T00:42:27.903Z,12.07
2023-09-18T00:43:00.607Z,12.05
2023-09-18T00:43:33.063Z,11.47
2023-09-18T00:44:06.938Z,11.95
2023-09-18T00:44:39.349Z,11.88
2023-09-18T00:45:11.792Z,12.25
2023-09-18T00:45:45.909Z,12.30
2023-09-18T00:46:18.528Z,12.23
2023-09-18T00:46:51.212Z,12.32
2023-09-18T00:47:23.947Z,12.20
2023-09-18T00:47:56.486Z,12.30
2023-09-18T00:48:29.755Z,12.60
2023-09-18T00:49:02.274Z,12.60
2023-09-18T00:49:35.556Z,12.23
2023-09-18T00:50:09.640Z,13.23
2023-09-18T00:50:42.474Z,13.02
2023-09-18T00:51:15.090Z,12.55
2023-09-18T00:51:48.747Z,12.05
2023-09-18T00:52:21.805Z,12.63
2023-09-18T00:52:54.186Z,12.30
2023-09-18T00:53:27.327Z,13.45
2023-09-18T00:54:00.743Z,12.43
2023-09-18T00:54:33.830Z,13.03
2023-09-18T00:55:07.994Z,12.27
2023-09-18T00:55:40.555Z,13.00
2023-09-18T00:56:13.443Z,12.50
2023-09-18T00:56:46.590Z,13.15
2023-09-18T00:57:19.563Z,12.23
2023-09-18T00:57:52.020Z,13.43
2023-09-18T00:58:24.964Z,13.07
2023-09-18T00:58:57.708Z,12.85
2023-09-18T00:59:30.302Z,12.70
2023-09-18T01:00:05.628Z,13.53
2023-09-18T01:00:40.104Z,14.15
2023-09-18T01:01:13.288Z,13.52
2023-09-18T01:01:45.970Z,14.30
2023-09-18T01:02:18.477Z,14.40
2023-09-18T01:02:51.497Z,14.38
2023-09-18T01:03:24.221Z,14.25
2023-09-18T01:03:57.134Z,13.65
2023-09-18T01:04:31.214Z,14.60
2023-09-18T01:05:04.015Z,14.65
2023-09-18T01:05:37.654Z,14.37
2023-09-18T01:06:10.239Z,13.82
2023-09-18T01:06:42.619Z,13.85
2023-09-18T01:07:16.932Z,17.52
2023-09-18T01:07:49.410Z,20.40
2023-09-18T01:08:21.856Z,18.95
2023-09-18T01:08:55.699Z,20.95
2023-09-18T01:09:28.006Z,22.50
2023-09-18T01:10:00.388Z,22.92
2023-09-18T01:10:37.222Z,23.10
2023-09-18T01:11:20.844Z,24.70
2023-09-18T01:12:03.500Z,29.70
2023-09-18T01:12:39.797Z,31.90
2023-09-18T01:13:17.405Z,30.42
2023-09-18T01:13:54.304Z,30.67
2023-09-18T01:14:47.228Z,27.08
2023-09-18T01:15:22.022Z,34.95
2023-09-18T01:16:02.263Z,27.60
2023-09-18T01:16:41.004Z,25.25
2023-09-18T01:17:16.728Z,13.60
2023-09-18T01:17:49.590Z,13.70
2023-09-18T01:18:22.269Z,12.63
2023-09-18T01:18:54.965Z,13.82
2023-09-18T01:19:38.020Z,14.65
2023-09-18T01:20:11.331Z,14.98
2023-09-18T01:20:44.885Z,13.13
2023-09-18T01:21:18.111Z,13.60
2023-09-18T01:21:50.588Z,13.05
2023-09-18T01:22:23.875Z,13.05
2023-09-18T01:22:56.393Z,13.10
2023-09-18T01:23:28.830Z,15.40
2023-09-18T01:24:01.396Z,13.98
2023-09-18T01:24:34.487Z,13.30
2023-09-18T01:25:08.299Z,14.27
2023-09-18T01:25:40.793Z,13.80
2023-09-18T01:26:13.162Z,12.68
2023-09-18T01:26:46.445Z,13.43
2023-09-18T01:27:19.463Z,13.43
2023-09-18T01:27:53.285Z,13.02
2023-09-18T01:28:26.011Z,12.70
2023-09-18T01:28:58.938Z,15.37
2023-09-18T01:29:32.081Z,13.43
2023-09-18T01:30:04.725Z,13.75
2023-09-18T01:30:39.770Z,14.23
2023-09-18T01:31:12.329Z,22.50
2023-09-18T01:31:45.976Z,13.15
2023-09-18T01:32:18.505Z,15.95
2023-09-18T01:32:51.076Z,13.40
2023-09-18T01:33:24.953Z,14.23
2023-09-18T01:33:58.172Z,15.52
2023-09-18T01:34:34.475Z,15.33
2023-09-18T01:35:08.951Z,29.02
2023-09-18T01:35:49.900Z,18.83
2023-09-18T01:36:22.236Z,27.60
2023-09-18T01:36:56.730Z,29.40
2023-09-18T01:37:30.628Z,31.10
2023-09-18T01:38:04.804Z,35.30
2023-09-18T01:38:38.245Z,36.63
2023-09-18T01:39:11.670Z,28.77
2023-09-18T01:39:45.407Z,22.15
2023-09-18T01:40:18.605Z,15.30
2023-09-18T01:40:51.948Z,13.07
2023-09-18T01:41:24.724Z,12.52
2023-09-18T01:41:57.266Z,13.93
2023-09-18T01:42:30.022Z,13.57
2023-09-18T01:43:02.395Z,13.13
2023-09-18T01:43:36.026Z,13.20
2023-09-18T01:44:09.710Z,13.80
2023-09-18T01:44:42.636Z,13.98
2023-09-18T01:45:15.157Z,13.52
2023-09-18T01:45:47.793Z,13.93
2023-09-18T01:46:20.664Z,13.88
2023-09-18T01:46:53.573Z,14.25
2023-09-18T01:47:26.412Z,16.73
2023-09-18T01:47:59.053Z,14.32
2023-09-18T01:48:31.376Z,13.18
2023-09-18T01:49:05.096Z,13.45
2023-09-18T01:49:38.205Z,13.88
2023-09-18T01:50:11.069Z,13.23
2023-09-18T01:50:43.492Z,12.70
2023-09-18T01:51:17.284Z,12.83
2023-09-18T01:51:50.488Z,12.77
2023-09-18T01:52:23.445Z,13.25
2023-09-18T01:52:55.957Z,13.45
2023-09-18T01:53:28.527Z,13.77
2023-09-18T01:54:01.375Z,13.80
2023-09-18T01:54:34.298Z,13.43
2023-09-18T01:55:07.308Z,13.23
2023-09-18T01:55:39.603Z,13.15
2023-09-18T01:56:12.038Z,12.73
2023-09-18T01:56:44.472Z,16.23
2023-09-18T01:57:16.799Z,13.25
2023-09-18T01:57:49.124Z,13.32
2023-09-18T01:58:21.527Z,13.07
2023-09-18T01:58:54.917Z,12.75
2023-09-18T01:59:28.119Z,13.85
2023-09-18T02:00:00.873Z,16.27
2023-09-18T02:00:34.186Z,15.95
2023-09-18T02:01:06.995Z,13.57
2023-09-18T02:01:39.903Z,15.40
2023-09-18T02:02:15.817Z,20.37
2023-09-18T02:02:56.968Z,18.77
2023-09-18T02:03:59.362Z,40.53
2023-09-18T02:04:41.011Z,29.05
2023-09-18T02:05:31.962Z,21.08
2023-09-18T02:06:05.064Z,15.27
2023-09-18T02:06:37.864Z,14.05
2023-09-18T02:07:10.711Z,14.88
2023-09-18T02:07:43.411Z,25.83
2023-09-18T02:08:16.008Z,14.18
2023-09-18T02:08:48.593Z,14.27
2023-09-18T02:09:21.029Z,13.68
2023-09-18T02:09:54.209Z,13.88
2023-09-18T02:10:26.526Z,14.77
2023-09-18T02:10:59.196Z,13.25
2023-09-18T02:11:31.751Z,13.00
2023-09-18T02:12:05.465Z,14.43
2023-09-18T02:12:38.282Z,13.50
2023-09-18T02:13:11.822Z,13.95
2023-09-18T02:13:46.394Z,13.43
2023-09-18T02:14:18.952Z,14.47
2023-09-18T02:14:51.992Z,12.65
2023-09-18T02:15:24.311Z,13.15
2023-09-18T02:15:57.053Z,13.70
2023-09-18T02:16:29.497Z,13.60
2023-09-18T02:17:02.758Z,12.90
2023-09-18T02:17:35.452Z,12.65
2023-09-18T02:18:07.962Z,12.90
2023-09-18T02:18:41.137Z,12.82
2023-09-18T02:19:18.322Z,13.70
2023-09-18T02:19:51.161Z,13.73
2023-09-18T02:20:23.648Z,12.50
2023-09-18T02:20:56.147Z,13.00
2023-09-18T02:21:28.617Z,13.85
2023-09-18T02:22:01.291Z,13.20
2023-09-18T02:22:34.145Z,13.82
2023-09-18T02:23:06.549Z,13.15
2023-09-18T02:23:39.162Z,14.05
2023-09-18T02:24:11.922Z,13.52
2023-09-18T02:24:44.213Z,13.52
2023-09-18T02:25:16.659Z,13.33
2023-09-18T02:25:56.684Z,13.30
2023-09-18T02:26:29.524Z,13.07
2023-09-18T02:27:01.925Z,15.75
2023-09-18T02:27:34.627Z,14.95
2023-09-18T02:28:07.418Z,13.18
2023-09-18T02:28:39.715Z,13.60
2023-09-18T02:29:13.063Z,13.18
2023-09-18T02:29:45.893Z,13.38
2023-09-18T02:30:20.495Z,17.20
2023-09-18T02:30:53.239Z,15.10
2023-09-18T02:31:25.716Z,13.43
2023-09-18T02:31:58.479Z,14.30
2023-09-18T02:32:32.150Z,14.52
2023-09-18T02:33:04.979Z,15.48
2023-09-18T02:33:38.247Z,14.32
2023-09-18T02:34:10.895Z,14.75
2023-09-18T02:34:44.573Z,16.55
2023-09-18T02:35:17.048Z,16.08
2023-09-18T02:35:49.596Z,17.58
2023-09-18T02:36:22.004Z,16.70
2023-09-18T02:36:55.574Z,16.30
2023-09-18T02:37:28.152Z,15.70
2023-09-18T02:38:02.091Z,15.45
2023-09-18T02:38:35.217Z,14.60
2023-09-18T02:39:08.074Z,14.65
2023-09-18T02:39:40.603Z,14.23
2023-09-18T02:40:14.178Z,13.85
2023-09-18T02:40:46.723Z,14.02
2023-09-18T02:41:19.568Z,14.13
2023-09-18T02:41:53.110Z,14.80
2023-09-18T02:42:25.392Z,14.90
2023-09-18T02:42:58.353Z,14.38
2023-09-18T02:43:31.412Z,15.00
2023-09-18T02:44:04.010Z,15.30
2023-09-18T02:44:36.869Z,14.32
2023-09-18T02:45:10.930Z,14.20
2023-09-18T02:45:43.501Z,14.45
2023-09-18T02:46:15.853Z,14.35
2023-09-18T02:46:48.253Z,13.13
2023-09-18T02:47:20.711Z,14.00
2023-09-18T02:47:53.125Z,13.30
2023-09-18T02:48:25.466Z,14.52
2023-09-18T02:48:58.729Z,14.85
2023-09-18T02:49:31.622Z,14.73
2023-09-18T02:50:05.556Z,14.20
2023-09-18T02:50:37.985Z,13.45
2023-09-18T02:51:10.489Z,15.23
2023-09-18T02:51:42.783Z,14.23
2023-09-18T02:52:15.256Z,13.27
2023-09-18T02:52:47.547Z,13.60
2023-09-18T02:53:21.377Z,13.52
2023-09-18T02:53:53.696Z,13.68
2023-09-18T02:54:26.051Z,14.73
2023-09-18T02:54:59.257Z,14.15
2023-09-18T02:55:31.674Z,13.48
2023-09-18T02:56:04.176Z,13.48
2023-09-18T02:56:36.540Z,12.88
2023-09-18T02:57:08.907Z,13.23
2023-09-18T02:57:41.816Z,13.65
2023-09-18T02:58:14.275Z,13.83
2023-09-18T02:58:46.598Z,13.95
2023-09-18T02:59:19.020Z,12.85
2023-09-18T02:59:51.847Z,13.75
2023-09-18T03:00:41.038Z,13.55
2023-09-18T03:01:15.419Z,13.20
2023-09-18T03:01:48.248Z,13.10
2023-09-18T03:02:20.679Z,13.25
2023-09-18T03:02:53.267Z,14.60
2023-09-18T03:03:26.618Z,14.18
2023-09-18T03:03:59.178Z,14.20
2023-09-18T03:04:32.630Z,13.25
2023-09-18T03:05:05.885Z,14.95
2023-09-18T03:05:38.713Z,14.18
2023-09-18T03:06:12.788Z,13.60
2023-09-18T03:06:45.282Z,13.13
2023-09-18T03:07:17.787Z,13.57
2023-09-18T03:07:50.553Z,13.48
2023-09-18T03:08:22.976Z,13.48
2023-09-18T03:08:55.644Z,12.75
2023-09-18T03:09:28.170Z,13.83
2023-09-18T03:10:00.465Z,13.13
2023-09-18T03:10:36.890Z,14.32
2023-09-18T03:11:13.105Z,15.80
2023-09-18T03:11:45.572Z,14.18
2023-09-18T03:12:17.875Z,14.20
2023-09-18T03:12:50.505Z,14.77
2023-09-18T03:13:23.167Z,13.07
2023-09-18T03:13:55.584Z,13.15
2023-09-18T03:14:28.096Z,13.18
2023-09-18T03:15:00.720Z,12.90
2023-09-18T03:15:33.474Z,12.38
2023-09-18T03:16:05.977Z,13.40
2023-09-18T03:16:38.377Z,13.77
2023-09-18T03:17:11.894Z,14.43
2023-09-18T03:17:44.466Z,14.00
2023-09-18T03:18:17.049Z,15.60
2023-09-18T03:18:50.511Z,20.13
2023-09-18T03:19:23.663Z,14.20
2023-09-18T03:19:56.529Z,22.63
2023-09-18T03:20:30.173Z,20.23
2023-09-18T03:21:02.783Z,18.42
2023-09-18T03:21:36.997Z,13.48
2023-09-18T03:22:09.432Z,14.60
2023-09-18T03:22:41.890Z,17.45
2023-09-18T03:23:14.611Z,14.30
2023-09-18T03:23:47.194Z,14.57
2023-09-18T03:24:19.848Z,15.00
2023-09-18T03:24:52.148Z,15.52
2023-09-18T03:25:24.845Z,16.92
2023-09-18T03:25:57.169Z,13.67
2023-09-18T03:26:29.633Z,13.50
2023-09-18T03:27:02.545Z,15.30
2023-09-18T03:27:34.997Z,15.88
2023-09-18T03:28:08.080Z,17.08
2023-09-18T03:28:40.824Z,21.10
2023-09-18T03:29:13.542Z,14.70
2023-09-18T03:29:46.151Z,14.32
2023-09-18T03:30:20.277Z,14.95
2023-09-18T03:30:53.182Z,13.90
2023-09-18T03:31:28.907Z,15.17
2023-09-18T03:32:01.780Z,17.42
2023-09-18T03:32:34.305Z,18.80
2023-09-18T03:33:07.079Z,20.48
2023-09-18T03:33:39.463Z,17.20
2023-09-18T03:34:11.749Z,13.98
2023-09-18T03:34:44.249Z,15.35
2023-09-18T03:35:19.851Z,16.05
2023-09-18T03:35:56.207Z,27.52
2023-09-18T03:36:32.048Z,24.60
2023-09-18T03:37:04.555Z,18.03
2023-09-18T03:37:36.939Z,15.98
2023-09-18T03:38:09.391Z,22.98
2023-09-18T03:38:41.882Z,15.57
2023-09-18T03:39:14.240Z,13.75
2023-09-18T03:39:46.618Z,15.23
2023-09-18T03:40:20.017Z,13.68
2023-09-18T03:40:53.178Z,26.27
2023-09-18T03:41:26.045Z,27.75
2023-09-18T03:41:58.427Z,27.77
2023-09-18T03:42:30.944Z,30.10
2023-09-18T03:43:03.512Z,25.08
2023-09-18T03:43:36.067Z,27.25
2023-09-18T03:44:08.562Z,28.75
2023-09-18T03:44:41.261Z,24.48
2023-09-18T03:45:14.192Z,26.50
2023-09-18T03:45:47.032Z,31.02
2023-09-18T03:46:19.458Z,18.35
2023-09-18T03:46:55.115Z,14.68
2023-09-18T03:47:27.515Z,14.95
2023-09-18T03:48:00.201Z,15.17
2023-09-18T03:48:37.806Z,13.98
2023-09-18T03:49:10.523Z,14.60
2023-09-18T03:49:44.078Z,15.02
2023-09-18T03:50:17.404Z,29.38
2023-09-18T03:50:49.902Z,23.00
2023-09-18T03:51:22.257Z,15.70
2023-09-18T03:51:54.877Z,14.25
2023-09-18T03:52:28.969Z,14.70
2023-09-18T03:53:01.487Z,14.70
2023-09-18T03:53:34.697Z,14.13
2023-09-18T03:54:07.267Z,14.20
2023-09-18T03:54:40.260Z,13.50
2023-09-18T03:55:12.894Z,14.45
2023-09-18T03:55:45.412Z,14.13
2023-09-18T03:56:18.217Z,14.70
2023-09-18T03:56:50.633Z,14.05
2023-09-18T03:57:23.128Z,13.50
2023-09-18T03:57:55.559Z,14.00
2023-09-18T03:58:28.325Z,19.00
2023-09-18T03:59:02.467Z,19.43
2023-09-18T03:59:35.481Z,20.83
2023-09-18T04:00:09.378Z,33.13
2023-09-18T04:00:45.624Z,31.80
2023-09-18T04:01:18.455Z,37.30
2023-09-18T04:01:52.014Z,37.92
2023-09-18T04:02:25.442Z,41.55
2023-09-18T04:02:58.277Z,29.80
2023-09-18T04:03:33.453Z,28.88
2023-09-18T04:04:06.106Z,13.75
2023-09-18T04:04:38.706Z,16.00
2023-09-18T04:05:11.188Z,14.88
2023-09-18T04:05:44.112Z,14.00
2023-09-18T04:06:16.561Z,26.38
2023-09-18T04:06:49.064Z,15.80
2023-09-18T04:07:21.896Z,14.50
2023-09-18T04:07:54.201Z,20.23
2023-09-18T04:08:27.543Z,23.75
2023-09-18T04:09:00.467Z,32.13
2023-09-18T04:09:33.265Z,29.17
2023-09-18T04:10:07.008Z,25.10
2023-09-18T04:10:39.403Z,13.57
2023-09-18T04:11:12.052Z,14.13
2023-09-18T04:11:44.559Z,14.98
2023-09-18T04:12:17.139Z,17.02
2023-09-18T04:12:51.920Z,13.23
2023-09-18T04:13:24.663Z,13.68
2023-09-18T04:13:57.117Z,14.32
2023-09-18T04:14:29.583Z,13.57
2023-09-18T04:15:02.177Z,18.08
2023-09-18T04:15:39.013Z,14.07
2023-09-18T04:16:15.083Z,14.20
2023-09-18T04:16:47.465Z,13.57
2023-09-18T04:17:20.017Z,17.20
2023-09-18T04:17:52.756Z,15.13
2023-09-18T04:18:25.554Z,15.45
2023-09-18T04:18:58.199Z,15.00
2023-09-18T04:19:30.851Z,14.30
2023-09-18T04:20:05.831Z,15.20
2023-09-18T04:20:39.089Z,16.92
2023-09-18T04:21:11.760Z,36.67
2023-09-18T04:21:44.155Z,25.20
2023-09-18T04:22:16.754Z,20.25
2023-09-18T04:22:52.509Z,19.48
2023-09-18T04:23:26.471Z,21.98
2023-09-18T04:24:00.017Z,15.77
2023-09-18T04:24:33.125Z,15.02
2023-09-18T04:25:06.758Z,14.05
2023-09-18T04:25:39.287Z,14.05
2023-09-18T04:26:17.341Z,20.95
2023-09-18T04:26:51.985Z,16.93
2023-09-18T04:27:24.459Z,21.98
2023-09-18T04:27:57.453Z,33.28
2023-09-18T04:28:29.807Z,20.70
2023-09-18T04:29:03.589Z,36.63
2023-09-18T04:29:37.311Z,40.55
2023-09-18T04:30:13.118Z,38.22
2023-09-18T04:30:45.571Z,37.60
2023-09-18T04:31:18.103Z,41.20
2023-09-18T04:31:50.627Z,27.40
2023-09-18T04:32:23.393Z,30.43
2023-09-18T04:32:55.957Z,23.85
2023-09-18T04:33:30.599Z,27.58
2023-09-18T04:34:04.485Z,38.55
2023-09-18T04:34:36.848Z,32.15
2023-09-18T04:35:10.145Z,27.20
2023-09-18T04:35:42.897Z,25.65
2023-09-18T04:36:15.457Z,26.55
2023-09-18T04:36:48.496Z,28.10
2023-09-18T04:37:21.123Z,30.45
2023-09-18T04:37:57.781Z,36.20
2023-09-18T04:38:30.211Z,38.53
2023-09-18T04:39:02.744Z,37.30
2023-09-18T04:39:35.744Z,30.55
2023-09-18T04:40:11.628Z,17.75
2023-09-18T04:40:47.138Z,27.10
2023-09-18T04:41:20.112Z,26.65
2023-09-18T04:41:52.638Z,29.88
2023-09-18T04:42:25.233Z,32.67
2023-09-18T04:42:57.579Z,29.30
2023-09-18T04:43:32.997Z,36.67
2023-09-18T04:44:07.089Z,32.58
2023-09-18T04:44:40.426Z,20.30
2023-09-18T04:45:12.823Z,19.48
2023-09-18T04:45:46.017Z,31.95
2023-09-18T04:46:19.733Z,26.83
2023-09-18T04:46:52.370Z,37.45
2023-09-18T04:47:25.217Z,33.53
2023-09-18T04:47:57.917Z,34.83
2023-09-18T04:48:31.184Z,35.58
2023-09-18T04:49:05.270Z,40.03
2023-09-18T04:49:39.450Z,39.72
2023-09-18T04:50:13.659Z,38.72
2023-09-18T04:50:47.327Z,40.88
2023-09-18T04:51:19.688Z,37.35
2023-09-18T04:51:52.137Z,31.67
2023-09-18T04:52:24.443Z,35.70
2023-09-18T04:52:59.250Z,22.73
2023-09-18T04:53:33.722Z,26.50
2023-09-18T04:54:06.906Z,14.02
2023-09-18T04:54:40.288Z,31.67
2023-09-18T04:55:14.380Z,38.83
2023-09-18T04:55:50.657Z,29.83
2023-09-18T04:56:23.094Z,31.50
2023-09-18T04:56:55.773Z,21.73
2023-09-18T04:57:28.223Z,29.70
2023-09-18T04:58:00.979Z,26.48
2023-09-18T04:58:34.322Z,33.38
2023-09-18T04:59:06.630Z,40.95
2023-09-18T04:59:39.168Z,40.72
2023-09-18T05:00:17.043Z,40.30
2023-09-18T05:00:56.706Z,41.67
2023-09-18T05:01:29.525Z,40.80
2023-09-18T05:02:01.855Z,15.68
2023-09-18T05:02:35.798Z,16.88
2023-09-18T05:03:09.903Z,24.48
2023-09-18T05:03:43.786Z,30.48
2023-09-18T05:04:18.266Z,37.25
2023-09-18T05:04:52.208Z,36.10
2023-09-18T05:05:25.050Z,39.15
2023-09-18T05:05:57.589Z,34.17
2023-09-18T05:06:30.288Z,36.40
2023-09-18T05:07:05.915Z,37.88
2023-09-18T05:07:46.959Z,38.03
2023-09-18T05:08:19.517Z,40.20
2023-09-18T05:08:53.558Z,43.83
2023-09-18T05:09:26.699Z,39.75
2023-09-18T05:09:59.245Z,34.88
2023-09-18T05:10:32.019Z,34.35
2023-09-18T05:11:05.108Z,28.95
2023-09-18T05:11:37.906Z,13.60
2023-09-18T05:12:14.974Z,21.73
2023-09-18T05:12:47.427Z,29.88
2023-09-18T05:13:19.794Z,32.53
2023-09-18T05:13:52.138Z,16.15
2023-09-18T05:14:24.538Z,22.27
2023-09-18T05:14:57.865Z,21.15
2023-09-18T05:15:31.987Z,28.35
2023-09-18T05:16:05.550Z,36.60
2023-09-18T05:16:38.045Z,25.75
2023-09-18T05:17:11.833Z,25.07
2023-09-18T05:17:45.824Z,33.50
2023-09-18T05:18:18.429Z,31.25
2023-09-18T05:18:51.009Z,36.15
2023-09-18T05:19:23.977Z,36.88
2023-09-18T05:19:56.281Z,29.83
2023-09-18T05:20:29.868Z,28.75
2023-09-18T05:21:03.580Z,40.13
2023-09-18T05:21:36.071Z,42.15
2023-09-18T05:22:09.485Z,22.30
2023-09-18T05:22:41.994Z,33.83
2023-09-18T05:23:17.049Z,15.13
2023-09-18T05:23:51.151Z,26.15
2023-09-18T05:24:28.425Z,33.33
2023-09-18T05:25:00.703Z,41.67
2023-09-18T05:25:34.727Z,21.92
2023-09-18T05:26:07.138Z,36.33
2023-09-18T05:26:39.987Z,22.15
2023-09-18T05:27:13.833Z,19.70
2023-09-18T05:27:46.543Z,32.97
2023-09-18T05:28:19.276Z,19.97
2023-09-18T05:28:52.871Z,32.78
2023-09-18T05:29:25.472Z,38.75
2023-09-18T05:29:57.861Z,29.38
2023-09-18T05:30:32.941Z,21.00
2023-09-18T05:31:05.534Z,16.63
2023-09-18T05:31:38.660Z,14.93
2023-09-18T05:32:11.009Z,14.15
2023-09-18T05:32:44.958Z,14.13
2023-09-18T05:33:17.359Z,16.23
2023-09-18T05:33:50.133Z,15.43
2023-09-18T05:34:22.443Z,18.80
2023-09-18T05:34:55.222Z,25.15
2023-09-18T05:35:27.491Z,44.45
2023-09-18T05:35:59.885Z,42.33
2023-09-18T05:36:33.149Z,31.25
2023-09-18T05:37:05.772Z,25.73
2023-09-18T05:37:39.713Z,16.23
2023-09-18T05:38:14.845Z,16.55
2023-09-18T05:38:47.613Z,21.60
2023-09-18T05:39:20.029Z,15.50
2023-09-18T05:39:52.463Z,33.05
2023-09-18T05:40:25.448Z,38.30
2023-09-18T05:41:06.387Z,40.20
2023-09-18T05:41:38.778Z,41.08
2023-09-18T05:42:12.717Z,39.33
2023-09-18T05:42:47.164Z,23.33
2023-09-18T05:43:19.773Z,38.20
2023-09-18T05:43:52.129Z,36.05
2023-09-18T05:44:24.534Z,40.10
2023-09-18T05:44:57.390Z,41.60
2023-09-18T05:45:30.365Z,29.33
2023-09-18T05:46:03.563Z,29.55
2023-09-18T05:46:38.870Z,38.33
2023-09-18T05:47:11.577Z,27.17
2023-09-18T05:47:44.574Z,30.25
2023-09-18T05:48:17.048Z,35.40
2023-09-18T05:48:49.673Z,42.00
2023-09-18T05:49:22.314Z,28.75
2023-09-18T05:49:54.801Z,23.38
2023-09-18T05:50:29.306Z,23.80
2023-09-18T05:51:02.098Z,29.80
2023-09-18T05:51:35.011Z,32.25
2023-09-18T05:52:07.489Z,38.08
2023-09-18T05:52:41.073Z,38.28
2023-09-18T05:53:13.589Z,40.05
2023-09-18T05:53:46.476Z,17.10
2023-09-18T05:54:18.927Z,15.23
2023-09-18T05:54:51.315Z,16.63
2023-09-18T05:55:23.836Z,20.00
2023-09-18T05:56:00.471Z,18.97
2023-09-18T05:56:32.898Z,36.97
2023-09-18T05:57:05.771Z,33.50
2023-09-18T05:57:38.630Z,36.25
2023-09-18T05:58:10.975Z,40.08
2023-09-18T05:58:43.287Z,40.17
2023-09-18T05:59:18.319Z,41.80
2023-09-18T05:59:51.017Z,38.35
2023-09-18T06:00:23.781Z,32.58
2023-09-18T06:00:56.194Z,35.03
2023-09-18T06:01:29.236Z,28.63
2023-09-18T06:02:01.559Z,35.00
2023-09-18T06:02:34.095Z,36.90
2023-09-18T06:03:07.574Z,17.30
2023-09-18T06:03:40.941Z,14.38
2023-09-18T06:04:14.340Z,35.50
2023-09-18T06:04:46.967Z,37.28
2023-09-18T06:05:22.652Z,18.23
2023-09-18T06:05:55.050Z,15.80
2023-09-18T06:06:27.576Z,16.90
2023-09-18T06:07:00.243Z,20.63
2023-09-18T06:07:32.592Z,15.70
2023-09-18T06:08:04.934Z,14.52
2023-09-18T06:08:37.825Z,15.35
2023-09-18T06:09:10.214Z,15.20
2023-09-18T06:09:42.597Z,14.45
2023-09-18T06:10:15.397Z,13.73
2023-09-18T06:10:47.804Z,14.02
2023-09-18T06:11:20.524Z,14.52
2023-09-18T06:11:52.939Z,17.02
2023-09-18T06:12:26.251Z,14.77
2023-09-18T06:13:00.089Z,15.82
2023-09-18T06:13:32.908Z,16.33
2023-09-18T06:14:05.344Z,15.18
2023-09-18T06:14:39.529Z,15.77
2023-09-18T06:15:12.850Z,14.63
2023-09-18T06:15:45.281Z,14.35
2023-09-18T06:16:17.733Z,15.77
2023-09-18T06:16:50.214Z,23.52
2023-09-18T06:17:22.747Z,15.85
2023-09-18T06:17:56.386Z,26.00
2023-09-18T06:18:28.934Z,26.20
2023-09-18T06:19:01.551Z,21.90
2023-09-18T06:19:35.264Z,17.10
2023-09-18T06:20:11.543Z,17.70
2023-09-18T06:20:46.377Z,17.02
2023-09-18T06:21:18.710Z,14.60
2023-09-18T06:21:52.108Z,15.80
2023-09-18T06:22:24.471Z,15.52
2023-09-18T06:22:56.904Z,14.27
2023-09-18T06:23:29.271Z,18.33
2023-09-18T06:24:01.778Z,24.85
2023-09-18T06:24:34.302Z,16.85
2023-09-18T06:25:07.049Z,15.10
2023-09-18T06:25:39.973Z,17.20
2023-09-18T06:26:12.502Z,15.93
2023-09-18T06:26:45.051Z,14.50
2023-09-18T06:27:17.529Z,15.15
2023-09-18T06:27:49.883Z,14.80
2023-09-18T06:28:22.222Z,14.70
2023-09-18T06:28:57.393Z,15.27
2023-09-18T06:29:30.458Z,15.88
2023-09-18T06:30:02.962Z,13.88
2023-09-18T06:30:37.775Z,14.63
2023-09-18T06:31:10.346Z,15.40
2023-09-18T06:31:43.180Z,15.98
2023-09-18T06:32:15.702Z,13.68
2023-09-18T06:32:48.430Z,14.50
2023-09-18T06:33:21.116Z,13.30
2023-09-18T06:33:53.617Z,15.05
2023-09-18T06:34:26.366Z,14.27
2023-09-18T06:35:02.012Z,14.30
2023-09-18T06:35:36.119Z,16.05
2023-09-18T06:36:08.452Z,16.25
2023-09-18T06:36:41.739Z,22.10
2023-09-18T06:37:14.110Z,18.38
2023-09-18T06:37:46.419Z,17.85
2023-09-18T06:38:18.913Z,15.77
2023-09-18T06:38:51.892Z,18.00
2023-09-18T06:39:25.390Z,16.25
2023-09-18T06:40:00.642Z,14.67
2023-09-18T06:40:33.121Z,14.45
2023-09-18T06:41:05.726Z,14.50
2023-09-18T06:41:38.282Z,14.90
2023-09-18T06:42:11.344Z,15.13
2023-09-18T06:42:44.103Z,15.45
2023-09-18T06:43:18.277Z,19.92
2023-09-18T06:43:50.747Z,16.83
2023-09-18T06:44:25.154Z,14.38
2023-09-18T06:44:57.781Z,15.07
2023-09-18T06:45:30.248Z,14.77
2023-09-18T06:46:02.553Z,13.65
2023-09-18T06:46:34.901Z,14.85
2023-09-18T06:47:07.393Z,14.75
2023-09-18T06:47:41.616Z,13.82
2023-09-18T06:48:15.537Z,13.38
2023-09-18T06:48:51.216Z,13.77
2023-09-18T06:49:23.770Z,13.98
2023-09-18T06:49:56.070Z,14.00
2023-09-18T06:50:28.684Z,14.23
2023-09-18T06:51:03.787Z,14.07
2023-09-18T06:51:43.054Z,13.80
2023-09-18T06:52:16.500Z,14.63
2023-09-18T06:52:49.088Z,15.25
2023-09-18T06:53:21.835Z,14.43
2023-09-18T06:53:54.313Z,14.40
2023-09-18T06:54:26.696Z,14.23
2023-09-18T06:54:59.239Z,13.73
2023-09-18T06:55:31.538Z,14.75
2023-09-18T06:56:04.122Z,14.25
2023-09-18T06:56:36.500Z,14.50
2023-09-18T06:57:08.824Z,13.25
2023-09-18T06:57:42.554Z,14.90
2023-09-18T06:58:15.057Z,15.05
2023-09-18T06:58:49.195Z,14.18
2023-09-18T06:59:21.539Z,12.68
2023-09-18T06:59:54.366Z,13.85
2023-09-18T07:00:26.749Z,12.55
2023-09-18T07:00:59.665Z,12.57
2023-09-18T07:01:33.216Z,13.80
2023-09-18T07:02:05.842Z,14.33
2023-09-18T07:02:38.301Z,12.90
2023-09-18T07:03:11.474Z,13.88
2023-09-18T07:03:44.084Z,14.35
2023-09-18T07:04:16.696Z,13.68
2023-09-18T07:04:49.194Z,13.48
2023-09-18T07:05:21.619Z,13.55
2023-09-18T07:05:54.736Z,12.98
2023-09-18T07:06:27.035Z,13.32
2023-09-18T07:06:59.452Z,12.75
2023-09-18T07:07:32.169Z,13.50
2023-09-18T07:08:06.754Z,13.10
2023-09-18T07:08:39.203Z,12.95
2023-09-18T07:09:13.601Z,13.13
2023-09-18T07:10:03.755Z,13.77